sensor_id;sensor_type;location;lat;lon;timestamp;temperature;humidity
21518;DHT22;61765;45.794;24.150;2023-08-12T00:02:02;23.40;77.40
21518;DHT22;61765;45.794;24.150;2023-08-12T00:10:12;23.40;77.40
21518;DHT22;61765;45.794;24.150;2023-08-12T00:18:17;23.50;76.90
21518;DHT22;61765;45.794;24.150;2023-08-12T00:26:25;23.40;76.60
21518;DHT22;61765;45.794;24.150;2023-08-12T00:34:30;23.30;76.70
21518;DHT22;61765;45.794;24.150;2023-08-12T00:42:39;23.30;77.40
21518;DHT22;61765;45.794;24.150;2023-08-12T00:50:45;23.10;77.60
21518;DHT22;61765;45.794;24.150;2023-08-12T00:58:53;23.00;78.00
21518;DHT22;61765;45.794;24.150;2023-08-12T01:07:00;22.90;78.30
21518;DHT22;61765;45.794;24.150;2023-08-12T01:15:13;22.80;78.40
21518;DHT22;61765;45.794;24.150;2023-08-12T01:23:22;22.70;78.70
21518;DHT22;61765;45.794;24.150;2023-08-12T01:31:31;22.70;79.20
21518;DHT22;61765;45.794;24.150;2023-08-12T01:39:41;22.60;80.00
21518;DHT22;61765;45.794;24.150;2023-08-12T01:47:48;22.50;79.70
21518;DHT22;61765;45.794;24.150;2023-08-12T01:55:57;22.50;80.20
21518;DHT22;61765;45.794;24.150;2023-08-12T02:04:02;22.30;80.40
21518;DHT22;61765;45.794;24.150;2023-08-12T02:12:10;22.30;80.80
21518;DHT22;61765;45.794;24.150;2023-08-12T02:20:16;22.20;81.10
21518;DHT22;61765;45.794;24.150;2023-08-12T02:28:24;22.20;81.00
21518;DHT22;61765;45.794;24.150;2023-08-12T02:36:29;22.20;81.10
21518;DHT22;61765;45.794;24.150;2023-08-12T02:44:37;22.20;81.00
21518;DHT22;61765;45.794;24.150;2023-08-12T02:52:43;22.20;81.20
21518;DHT22;61765;45.794;24.150;2023-08-12T03:00:51;22.10;81.50
21518;DHT22;61765;45.794;24.150;2023-08-12T03:08:56;22.10;81.60
21518;DHT22;61765;45.794;24.150;2023-08-12T03:17:05;22.00;82.20
21518;DHT22;61765;45.794;24.150;2023-08-12T03:25:12;21.90;82.40
21518;DHT22;61765;45.794;24.150;2023-08-12T03:33:22;21.80;82.80
21518;DHT22;61765;45.794;24.150;2023-08-12T03:41:30;21.80;83.40
21518;DHT22;61765;45.794;24.150;2023-08-12T03:49:42;21.70;83.60
21518;DHT22;61765;45.794;24.150;2023-08-12T03:57:47;21.70;83.40
21518;DHT22;61765;45.794;24.150;2023-08-12T04:05:57;21.70;83.70
21518;DHT22;61765;45.794;24.150;2023-08-12T04:14:03;21.70;83.80
21518;DHT22;61765;45.794;24.150;2023-08-12T04:22:11;21.90;83.60
21518;DHT22;61765;45.794;24.150;2023-08-12T04:30:18;22.10;83.30
21518;DHT22;61765;45.794;24.150;2023-08-12T04:38:27;22.00;83.60
21518;DHT22;61765;45.794;24.150;2023-08-12T04:46:35;22.40;82.70
21518;DHT22;61765;45.794;24.150;2023-08-12T04:54:46;22.50;82.60
21518;DHT22;61765;45.794;24.150;2023-08-12T05:02:52;22.80;81.50
21518;DHT22;61765;45.794;24.150;2023-08-12T05:11:02;22.90;81.20
21518;DHT22;61765;45.794;24.150;2023-08-12T05:19:07;23.20;80.20
21518;DHT22;61765;45.794;24.150;2023-08-12T05:27:15;23.60;79.30
21518;DHT22;61765;45.794;24.150;2023-08-12T05:35:25;24.10;78.00
21518;DHT22;61765;45.794;24.150;2023-08-12T05:43:33;25.20;77.20
21518;DHT22;61765;45.794;24.150;2023-08-12T05:51:38;25.90;72.60
21518;DHT22;61765;45.794;24.150;2023-08-12T05:59:46;26.20;71.70
21518;DHT22;61765;45.794;24.150;2023-08-12T06:07:52;26.70;71.00
21518;DHT22;61765;45.794;24.150;2023-08-12T06:16:00;27.00;69.70
21518;DHT22;61765;45.794;24.150;2023-08-12T06:24:06;27.50;68.10
21518;DHT22;61765;45.794;24.150;2023-08-12T06:32:14;28.00;68.00
21518;DHT22;61765;45.794;24.150;2023-08-12T06:40:23;28.40;64.80
21518;DHT22;61765;45.794;24.150;2023-08-12T06:48:32;28.60;63.20
21518;DHT22;61765;45.794;24.150;2023-08-12T06:56:38;28.90;59.20
21518;DHT22;61765;45.794;24.150;2023-08-12T07:04:47;29.50;57.90
21518;DHT22;61765;45.794;24.150;2023-08-12T07:12:52;29.90;58.00
21518;DHT22;61765;45.794;24.150;2023-08-12T07:21:00;30.00;57.90
21518;DHT22;61765;45.794;24.150;2023-08-12T07:29:06;30.30;57.40
21518;DHT22;61765;45.794;24.150;2023-08-12T07:37:14;30.40;58.10
21518;DHT22;61765;45.794;24.150;2023-08-12T07:45:19;30.80;56.90
21518;DHT22;61765;45.794;24.150;2023-08-12T07:53:27;30.70;56.50
21518;DHT22;61765;45.794;24.150;2023-08-12T08:01:33;30.50;55.40
21518;DHT22;61765;45.794;24.150;2023-08-12T08:09:43;30.30;56.50
21518;DHT22;61765;45.794;24.150;2023-08-12T08:17:48;30.30;57.10
21518;DHT22;61765;45.794;24.150;2023-08-12T08:25:59;30.10;55.90
21518;DHT22;61765;45.794;24.150;2023-08-12T08:34:05;30.00;56.10
21518;DHT22;61765;45.794;24.150;2023-08-12T08:42:15;30.20;55.90
21518;DHT22;61765;45.794;24.150;2023-08-12T08:50:22;30.50;55.10
21518;DHT22;61765;45.794;24.150;2023-08-12T08:58:30;30.00;55.60
21518;DHT22;61765;45.794;24.150;2023-08-12T09:06:36;29.80;54.90
21518;DHT22;61765;45.794;24.150;2023-08-12T09:14:48;29.70;55.00
21518;DHT22;61765;45.794;24.150;2023-08-12T09:22:58;30.10;55.70
21518;DHT22;61765;45.794;24.150;2023-08-12T09:31:06;30.30;55.90
21518;DHT22;61765;45.794;24.150;2023-08-12T09:39:13;30.50;54.50
21518;DHT22;61765;45.794;24.150;2023-08-12T09:47:25;29.90;54.70
21518;DHT22;61765;45.794;24.150;2023-08-12T09:55:32;30.10;56.80
21518;DHT22;61765;45.794;24.150;2023-08-12T10:03:43;30.60;54.80
21518;DHT22;61765;45.794;24.150;2023-08-12T10:11:52;31.20;53.80
21518;DHT22;61765;45.794;24.150;2023-08-12T10:20:01;30.90;53.70
21518;DHT22;61765;45.794;24.150;2023-08-12T10:28:07;32.00;54.10
21518;DHT22;61765;45.794;24.150;2023-08-12T10:36:15;33.00;51.90
21518;DHT22;61765;45.794;24.150;2023-08-12T10:44:21;33.20;52.00
21518;DHT22;61765;45.794;24.150;2023-08-12T10:52:30;33.10;52.20
21518;DHT22;61765;45.794;24.150;2023-08-12T11:00:36;34.40;53.40
21518;DHT22;61765;45.794;24.150;2023-08-12T11:08:52;35.40;48.50
21518;DHT22;61765;45.794;24.150;2023-08-12T11:16:57;35.70;50.40
21518;DHT22;61765;45.794;24.150;2023-08-12T11:25:08;40.00;47.00
21518;DHT22;61765;45.794;24.150;2023-08-12T11:33:16;44.90;38.30
21518;DHT22;61765;45.794;24.150;2023-08-12T11:41:27;42.60;39.40
21518;DHT22;61765;45.794;24.150;2023-08-12T11:49:32;41.10;41.60
21518;DHT22;61765;45.794;24.150;2023-08-12T11:57:41;41.40;42.50
21518;DHT22;61765;45.794;24.150;2023-08-12T12:05:47;49.80;35.30
21518;DHT22;61765;45.794;24.150;2023-08-12T12:13:55;55.20;31.80
21518;DHT22;61765;45.794;24.150;2023-08-12T12:22:01;52.80;30.20
21518;DHT22;61765;45.794;24.150;2023-08-12T12:30:12;52.90;30.80
21518;DHT22;61765;45.794;24.150;2023-08-12T12:38:17;55.80;29.40
21518;DHT22;61765;45.794;24.150;2023-08-12T12:55:18;53.10;29.90
21518;DHT22;61765;45.794;24.150;2023-08-12T13:03:24;47.20;33.10
21518;DHT22;61765;45.794;24.150;2023-08-12T13:11:32;47.80;32.50
21518;DHT22;61765;45.794;24.150;2023-08-12T13:19:38;43.00;37.10
21518;DHT22;61765;45.794;24.150;2023-08-12T13:27:46;39.50;40.90
21518;DHT22;61765;45.794;24.150;2023-08-12T13:35:52;37.30;43.30
21518;DHT22;61765;45.794;24.150;2023-08-12T13:44:00;36.30;45.00
21518;DHT22;61765;45.794;24.150;2023-08-12T13:52:06;35.90;46.10
21518;DHT22;61765;45.794;24.150;2023-08-12T14:00:14;35.30;47.10
21518;DHT22;61765;45.794;24.150;2023-08-12T14:08:20;34.60;47.90
21518;DHT22;61765;45.794;24.150;2023-08-12T14:16:28;33.80;48.90
21518;DHT22;61765;45.794;24.150;2023-08-12T14:24:33;33.40;49.90
21518;DHT22;61765;45.794;24.150;2023-08-12T14:32:41;32.90;50.60
21518;DHT22;61765;45.794;24.150;2023-08-12T14:40:47;32.40;50.60
21518;DHT22;61765;45.794;24.150;2023-08-12T14:48:55;32.00;51.90
21518;DHT22;61765;45.794;24.150;2023-08-12T14:57:01;31.80;52.30
21518;DHT22;61765;45.794;24.150;2023-08-12T15:05:09;31.70;53.00
21518;DHT22;61765;45.794;24.150;2023-08-12T15:13:17;31.50;52.70
21518;DHT22;61765;45.794;24.150;2023-08-12T15:21:25;31.10;53.30
21518;DHT22;61765;45.794;24.150;2023-08-12T15:29:30;31.00;53.60
21518;DHT22;61765;45.794;24.150;2023-08-12T15:37:38;30.70;53.60
21518;DHT22;61765;45.794;24.150;2023-08-12T15:45:44;30.80;53.90
21518;DHT22;61765;45.794;24.150;2023-08-12T15:53:52;30.70;54.80
21518;DHT22;61765;45.794;24.150;2023-08-12T16:01:58;30.10;56.50
21518;DHT22;61765;45.794;24.150;2023-08-12T16:10:07;30.20;56.10
21518;DHT22;61765;45.794;24.150;2023-08-12T16:18:12;30.00;56.40
21518;DHT22;61765;45.794;24.150;2023-08-12T16:26:21;29.90;56.40
21518;DHT22;61765;45.794;24.150;2023-08-12T16:34:27;29.60;56.50
21518;DHT22;61765;45.794;24.150;2023-08-12T16:42:35;29.50;57.30
21518;DHT22;61765;45.794;24.150;2023-08-12T16:50:40;29.40;57.40
21518;DHT22;61765;45.794;24.150;2023-08-12T16:58:49;29.30;58.00
21518;DHT22;61765;45.794;24.150;2023-08-12T17:06:54;29.20;57.70
21518;DHT22;61765;45.794;24.150;2023-08-12T17:15:03;28.80;58.80
21518;DHT22;61765;45.794;24.150;2023-08-12T17:23:08;28.80;59.00
21518;DHT22;61765;45.794;24.150;2023-08-12T17:31:23;28.70;59.00
21518;DHT22;61765;45.794;24.150;2023-08-12T17:39:29;28.50;60.00
21518;DHT22;61765;45.794;24.150;2023-08-12T17:47:37;28.30;60.90
21518;DHT22;61765;45.794;24.150;2023-08-12T17:55:43;28.20;62.50
21518;DHT22;61765;45.794;24.150;2023-08-12T18:03:51;28.10;62.70
21518;DHT22;61765;45.794;24.150;2023-08-12T18:11:58;27.90;63.20
21518;DHT22;61765;45.794;24.150;2023-08-12T18:20:07;27.80;64.30
21518;DHT22;61765;45.794;24.150;2023-08-12T18:28:14;27.60;66.20
21518;DHT22;61765;45.794;24.150;2023-08-12T18:36:22;27.40;68.00
21518;DHT22;61765;45.794;24.150;2023-08-12T18:44:27;27.10;68.70
21518;DHT22;61765;45.794;24.150;2023-08-12T18:52:35;26.80;69.80
21518;DHT22;61765;45.794;24.150;2023-08-12T19:00:40;26.70;70.60
21518;DHT22;61765;45.794;24.150;2023-08-12T19:08:48;26.50;70.90
21518;DHT22;61765;45.794;24.150;2023-08-12T19:16:54;26.30;71.00
21518;DHT22;61765;45.794;24.150;2023-08-12T19:25:02;26.30;71.20
21518;DHT22;61765;45.794;24.150;2023-08-12T19:33:08;25.90;72.30
21518;DHT22;61765;45.794;24.150;2023-08-12T19:41:16;25.70;73.00
21518;DHT22;61765;45.794;24.150;2023-08-12T19:49:21;25.60;74.60
21518;DHT22;61765;45.794;24.150;2023-08-12T19:57:29;25.40;74.80
21518;DHT22;61765;45.794;24.150;2023-08-12T20:05:35;25.40;75.50
21518;DHT22;61765;45.794;24.150;2023-08-12T20:13:50;25.40;75.00
21518;DHT22;61765;45.794;24.150;2023-08-12T20:21:57;25.20;75.50
21518;DHT22;61765;45.794;24.150;2023-08-12T20:30:06;25.20;75.30
21518;DHT22;61765;45.794;24.150;2023-08-12T20:38:12;25.20;75.80
21518;DHT22;61765;45.794;24.150;2023-08-12T20:46:23;25.00;75.00
21518;DHT22;61765;45.794;24.150;2023-08-12T20:54:28;24.90;76.10
21518;DHT22;61765;45.794;24.150;2023-08-12T21:02:36;24.70;76.90
21518;DHT22;61765;45.794;24.150;2023-08-12T21:10:50;24.60;77.40
21518;DHT22;61765;45.794;24.150;2023-08-12T21:18:58;24.50;77.50
21518;DHT22;61765;45.794;24.150;2023-08-12T21:27:03;24.40;77.50
21518;DHT22;61765;45.794;24.150;2023-08-12T21:35:12;24.30;77.40
21518;DHT22;61765;45.794;24.150;2023-08-12T21:43:18;24.10;77.90
21518;DHT22;61765;45.794;24.150;2023-08-12T21:51:26;24.10;77.60
21518;DHT22;61765;45.794;24.150;2023-08-12T21:59:32;24.00;78.00
21518;DHT22;61765;45.794;24.150;2023-08-12T22:07:40;23.90;78.30
21518;DHT22;61765;45.794;24.150;2023-08-12T22:15:45;24.00;78.60
21518;DHT22;61765;45.794;24.150;2023-08-12T22:23:53;23.90;79.10
21518;DHT22;61765;45.794;24.150;2023-08-12T22:31:59;23.40;80.30
21518;DHT22;61765;45.794;24.150;2023-08-12T22:40:08;23.40;80.50
21518;DHT22;61765;45.794;24.150;2023-08-12T22:48:13;23.30;80.80
21518;DHT22;61765;45.794;24.150;2023-08-12T22:56:22;23.20;81.20
21518;DHT22;61765;45.794;24.150;2023-08-12T23:04:27;23.00;81.20
21518;DHT22;61765;45.794;24.150;2023-08-12T23:12:37;22.90;81.20
21518;DHT22;61765;45.794;24.150;2023-08-12T23:20:43;22.90;81.00
21518;DHT22;61765;45.794;24.150;2023-08-12T23:28:51;22.80;81.10
21518;DHT22;61765;45.794;24.150;2023-08-12T23:36:56;22.70;81.20
21518;DHT22;61765;45.794;24.150;2023-08-12T23:45:05;22.80;81.00
21518;DHT22;61765;45.794;24.150;2023-08-12T23:53:11;22.60;81.60
